sensor_id;sensor_type;location;lat;lon;timestamp;temperature;humidity
69823;SHT31;57119;52.516;13.508;2023-06-10T00:01:21;15.27;95.52
69823;SHT31;57119;52.516;13.508;2023-06-10T00:03:50;15.23;95.48
69823;SHT31;57119;52.516;13.508;2023-06-10T00:06:15;15.25;95.51
69823;SHT31;57119;52.516;13.508;2023-06-10T00:08:41;15.33;95.53
69823;SHT31;57119;52.516;13.508;2023-06-10T00:11:07;15.32;95.17
69823;SHT31;57119;52.516;13.508;2023-06-10T00:13:32;15.30;95.35
69823;SHT31;57119;52.516;13.508;2023-06-10T00:15:58;15.23;95.40
69823;SHT31;57119;52.516;13.508;2023-06-10T00:18:23;15.27;95.69
69823;SHT31;57119;52.516;13.508;2023-06-10T00:20:48;15.26;95.51
69823;SHT31;57119;52.516;13.508;2023-06-10T00:23:18;15.19;95.77
69823;SHT31;57119;52.516;13.508;2023-06-10T00:25:43;15.16;95.81
69823;SHT31;57119;52.516;13.508;2023-06-10T00:28:09;15.15;96.05
69823;SHT31;57119;52.516;13.508;2023-06-10T00:30:34;15.13;95.86
69823;SHT31;57119;52.516;13.508;2023-06-10T00:33:00;15.16;96.03
69823;SHT31;57119;52.516;13.508;2023-06-10T00:35:25;15.08;96.08
69823;SHT31;57119;52.516;13.508;2023-06-10T00:37:50;15.20;96.05
69823;SHT31;57119;52.516;13.508;2023-06-10T00:40:16;15.09;95.97
69823;SHT31;57119;52.516;13.508;2023-06-10T00:42:41;15.06;96.38
69823;SHT31;57119;52.516;13.508;2023-06-10T00:45:07;15.10;96.33
69823;SHT31;57119;52.516;13.508;2023-06-10T00:47:33;15.05;96.14
69823;SHT31;57119;52.516;13.508;2023-06-10T00:50:00;14.91;96.67
69823;SHT31;57119;52.516;13.508;2023-06-10T00:52:28;14.92;97.06
69823;SHT31;57119;52.516;13.508;2023-06-10T00:54:54;14.85;97.04
69823;SHT31;57119;52.516;13.508;2023-06-10T00:57:20;14.87;97.21
69823;SHT31;57119;52.516;13.508;2023-06-10T00:59:48;14.84;97.17
69823;SHT31;57119;52.516;13.508;2023-06-10T01:02:14;14.72;97.57
69823;SHT31;57119;52.516;13.508;2023-06-10T01:04:39;14.75;97.56
69823;SHT31;57119;52.516;13.508;2023-06-10T01:07:17;14.67;97.83
69823;SHT31;57119;52.516;13.508;2023-06-10T01:12:20;14.74;97.62
69823;SHT31;57119;52.516;13.508;2023-06-10T01:14:50;14.77;97.71
69823;SHT31;57119;52.516;13.508;2023-06-10T01:17:16;14.78;97.41
69823;SHT31;57119;52.516;13.508;2023-06-10T01:19:43;14.71;97.79
69823;SHT31;57119;52.516;13.508;2023-06-10T01:22:09;14.54;98.05
69823;SHT31;57119;52.516;13.508;2023-06-10T01:24:36;14.52;98.27
69823;SHT31;57119;52.516;13.508;2023-06-10T01:27:05;14.54;98.25
69823;SHT31;57119;52.516;13.508;2023-06-10T01:29:45;14.52;98.34
69823;SHT31;57119;52.516;13.508;2023-06-10T01:32:21;14.50;98.44
69823;SHT31;57119;52.516;13.508;2023-06-10T01:34:49;14.38;98.80
69823;SHT31;57119;52.516;13.508;2023-06-10T01:37:18;14.31;99.13
69823;SHT31;57119;52.516;13.508;2023-06-10T01:39:45;14.31;99.19
69823;SHT31;57119;52.516;13.508;2023-06-10T01:42:12;14.29;99.15
69823;SHT31;57119;52.516;13.508;2023-06-10T01:44:39;14.24;99.31
69823;SHT31;57119;52.516;13.508;2023-06-10T01:47:04;14.29;99.15
69823;SHT31;57119;52.516;13.508;2023-06-10T01:49:30;14.21;99.23
69823;SHT31;57119;52.516;13.508;2023-06-10T01:51:55;14.16;99.65
69823;SHT31;57119;52.516;13.508;2023-06-10T01:54:21;14.16;99.67
69823;SHT31;57119;52.516;13.508;2023-06-10T01:56:46;14.20;99.68
69823;SHT31;57119;52.516;13.508;2023-06-10T01:59:11;14.26;99.42
69823;SHT31;57119;52.516;13.508;2023-06-10T02:01:37;14.24;99.33
69823;SHT31;57119;52.516;13.508;2023-06-10T02:04:02;14.23;99.30
69823;SHT31;57119;52.516;13.508;2023-06-10T02:06:27;14.12;99.68
69823;SHT31;57119;52.516;13.508;2023-06-10T02:08:53;14.14;99.62
69823;SHT31;57119;52.516;13.508;2023-06-10T02:11:18;14.06;99.97
69823;SHT31;57119;52.516;13.508;2023-06-10T02:13:43;14.12;99.82
69823;SHT31;57119;52.516;13.508;2023-06-10T02:16:09;14.14;99.65
69823;SHT31;57119;52.516;13.508;2023-06-10T02:18:38;14.03;99.88
69823;SHT31;57119;52.516;13.508;2023-06-10T02:21:06;14.09;99.80
69823;SHT31;57119;52.516;13.508;2023-06-10T02:23:32;14.12;99.72
69823;SHT31;57119;52.516;13.508;2023-06-10T02:25:57;14.03;99.95
69823;SHT31;57119;52.516;13.508;2023-06-10T02:28:23;14.02;99.91
69823;SHT31;57119;52.516;13.508;2023-06-10T02:30:48;14.00;99.99
69823;SHT31;57119;52.516;13.508;2023-06-10T02:33:13;14.00;99.99
69823;SHT31;57119;52.516;13.508;2023-06-10T02:35:39;13.96;99.99
69823;SHT31;57119;52.516;13.508;2023-06-10T02:38:04;13.98;99.99
69823;SHT31;57119;52.516;13.508;2023-06-10T02:40:30;13.87;99.99
69823;SHT31;57119;52.516;13.508;2023-06-10T02:42:56;13.83;99.99
69823;SHT31;57119;52.516;13.508;2023-06-10T02:45:21;13.81;99.99
69823;SHT31;57119;52.516;13.508;2023-06-10T02:47:47;13.79;99.99
69823;SHT31;57119;52.516;13.508;2023-06-10T02:50:13;13.87;99.99
69823;SHT31;57119;52.516;13.508;2023-06-10T02:52:39;13.89;99.99
69823;SHT31;57119;52.516;13.508;2023-06-10T02:55:04;13.90;99.99
69823;SHT31;57119;52.516;13.508;2023-06-10T02:57:30;13.79;99.99
69823;SHT31;57119;52.516;13.508;2023-06-10T02:59:55;13.73;99.99
69823;SHT31;57119;52.516;13.508;2023-06-10T03:02:21;13.81;99.99
69823;SHT31;57119;52.516;13.508;2023-06-10T03:04:47;13.76;99.99
69823;SHT31;57119;52.516;13.508;2023-06-10T03:07:13;13.69;99.99
69823;SHT31;57119;52.516;13.508;2023-06-10T03:09:39;13.71;99.99
69823;SHT31;57119;52.516;13.508;2023-06-10T03:12:05;13.65;99.99
69823;SHT31;57119;52.516;13.508;2023-06-10T03:14:31;13.71;99.99
69823;SHT31;57119;52.516;13.508;2023-06-10T03:16:56;13.79;99.99
69823;SHT31;57119;52.516;13.508;2023-06-10T03:19:22;13.78;99.99
69823;SHT31;57119;52.516;13.508;2023-06-10T03:22:07;13.78;99.99
69823;SHT31;57119;52.516;13.508;2023-06-10T03:24:33;13.75;99.99
69823;SHT31;57119;52.516;13.508;2023-06-10T03:26:58;13.83;99.99
69823;SHT31;57119;52.516;13.508;2023-06-10T03:29:23;13.79;99.99
69823;SHT31;57119;52.516;13.508;2023-06-10T03:31:49;13.82;99.99
69823;SHT31;57119;52.516;13.508;2023-06-10T03:34:14;13.82;99.99
69823;SHT31;57119;52.516;13.508;2023-06-10T03:36:40;13.78;99.99
69823;SHT31;57119;52.516;13.508;2023-06-10T03:39:08;13.79;99.99
69823;SHT31;57119;52.516;13.508;2023-06-10T03:41:33;13.73;99.99
69823;SHT31;57119;52.516;13.508;2023-06-10T03:43:58;13.82;99.99
69823;SHT31;57119;52.516;13.508;2023-06-10T03:46:24;13.81;99.99
69823;SHT31;57119;52.516;13.508;2023-06-10T03:48:49;13.87;99.99
69823;SHT31;57119;52.516;13.508;2023-06-10T03:51:14;13.85;99.99
69823;SHT31;57119;52.516;13.508;2023-06-10T03:53:40;13.93;99.99
69823;SHT31;57119;52.516;13.508;2023-06-10T03:56:05;13.96;99.99
69823;SHT31;57119;52.516;13.508;2023-06-10T03:58:31;13.99;99.99
69823;SHT31;57119;52.516;13.508;2023-06-10T04:00:56;14.02;99.99
69823;SHT31;57119;52.516;13.508;2023-06-10T04:03:22;14.12;99.99
69823;SHT31;57119;52.516;13.508;2023-06-10T04:05:48;14.10;99.99
69823;SHT31;57119;52.516;13.508;2023-06-10T04:08:15;14.20;99.99
69823;SHT31;57119;52.516;13.508;2023-06-10T04:10:40;14.29;99.69
69823;SHT31;57119;52.516;13.508;2023-06-10T04:13:06;14.40;99.27
69823;SHT31;57119;52.516;13.508;2023-06-10T04:15:31;14.56;98.92
69823;SHT31;57119;52.516;13.508;2023-06-10T04:17:59;14.60;98.69
69823;SHT31;57119;52.516;13.508;2023-06-10T04:20:26;14.68;98.64
69823;SHT31;57119;52.516;13.508;2023-06-10T04:22:52;14.77;98.23
69823;SHT31;57119;52.516;13.508;2023-06-10T04:25:17;14.81;97.86
69823;SHT31;57119;52.516;13.508;2023-06-10T04:27:43;14.75;97.92
69823;SHT31;57119;52.516;13.508;2023-06-10T04:30:09;14.78;98.11
69823;SHT31;57119;52.516;13.508;2023-06-10T04:32:34;14.72;98.06
69823;SHT31;57119;52.516;13.508;2023-06-10T04:35:00;14.77;97.81
69823;SHT31;57119;52.516;13.508;2023-06-10T04:37:25;14.93;97.61
69823;SHT31;57119;52.516;13.508;2023-06-10T04:39:51;14.99;97.29
69823;SHT31;57119;52.516;13.508;2023-06-10T04:42:16;15.09;97.32
69823;SHT31;57119;52.516;13.508;2023-06-10T04:44:42;15.29;96.87
69823;SHT31;57119;52.516;13.508;2023-06-10T04:47:08;15.43;96.11
69823;SHT31;57119;52.516;13.508;2023-06-10T04:49:34;15.63;95.74
69823;SHT31;57119;52.516;13.508;2023-06-10T04:52:00;15.83;95.34
69823;SHT31;57119;52.516;13.508;2023-06-10T04:54:25;16.13;94.50
69823;SHT31;57119;52.516;13.508;2023-06-10T04:56:51;16.19;93.84
69823;SHT31;57119;52.516;13.508;2023-06-10T04:59:16;16.36;93.73
69823;SHT31;57119;52.516;13.508;2023-06-10T05:01:41;16.59;93.31
69823;SHT31;57119;52.516;13.508;2023-06-10T05:04:07;16.66;92.34
69823;SHT31;57119;52.516;13.508;2023-06-10T05:06:32;16.83;92.31
69823;SHT31;57119;52.516;13.508;2023-06-10T05:08:57;16.98;91.69
69823;SHT31;57119;52.516;13.508;2023-06-10T05:11:23;17.15;91.35
69823;SHT31;57119;52.516;13.508;2023-06-10T05:13:48;17.31;91.18
69823;SHT31;57119;52.516;13.508;2023-06-10T05:16:14;17.42;90.38
69823;SHT31;57119;52.516;13.508;2023-06-10T05:18:40;17.72;89.69
69823;SHT31;57119;52.516;13.508;2023-06-10T05:21:05;17.93;88.93
69823;SHT31;57119;52.516;13.508;2023-06-10T05:23:31;18.17;88.77
69823;SHT31;57119;52.516;13.508;2023-06-10T05:25:57;18.54;87.32
69823;SHT31;57119;52.516;13.508;2023-06-10T05:28:23;18.85;86.13
69823;SHT31;57119;52.516;13.508;2023-06-10T05:30:48;19.14;86.12
69823;SHT31;57119;52.516;13.508;2023-06-10T05:33:15;19.17;85.76
69823;SHT31;57119;52.516;13.508;2023-06-10T05:35:40;19.46;85.46
69823;SHT31;57119;52.516;13.508;2023-06-10T05:38:06;19.31;84.32
69823;SHT31;57119;52.516;13.508;2023-06-10T05:40:31;19.34;84.44
69823;SHT31;57119;52.516;13.508;2023-06-10T05:42:57;19.62;84.37
69823;SHT31;57119;52.516;13.508;2023-06-10T05:45:22;19.82;83.28
69823;SHT31;57119;52.516;13.508;2023-06-10T05:47:48;20.08;82.97
69823;SHT31;57119;52.516;13.508;2023-06-10T05:50:13;20.02;82.62
69823;SHT31;57119;52.516;13.508;2023-06-10T05:52:39;20.22;82.31
69823;SHT31;57119;52.516;13.508;2023-06-10T05:55:06;20.36;81.97
69823;SHT31;57119;52.516;13.508;2023-06-10T05:57:31;20.50;82.07
69823;SHT31;57119;52.516;13.508;2023-06-10T05:59:57;20.70;80.99
69823;SHT31;57119;52.516;13.508;2023-06-10T06:02:22;20.73;80.63
69823;SHT31;57119;52.516;13.508;2023-06-10T06:04:47;20.85;79.48
69823;SHT31;57119;52.516;13.508;2023-06-10T06:07:13;20.51;79.98
69823;SHT31;57119;52.516;13.508;2023-06-10T06:09:38;20.63;80.31
69823;SHT31;57119;52.516;13.508;2023-06-10T06:12:04;20.70;79.72
69823;SHT31;57119;52.516;13.508;2023-06-10T06:14:31;20.80;79.69
69823;SHT31;57119;52.516;13.508;2023-06-10T06:16:57;20.92;80.03
69823;SHT31;57119;52.516;13.508;2023-06-10T06:19:23;20.67;79.51
69823;SHT31;57119;52.516;13.508;2023-06-10T06:21:48;20.91;79.69
69823;SHT31;57119;52.516;13.508;2023-06-10T06:24:15;20.87;79.90
69823;SHT31;57119;52.516;13.508;2023-06-10T06:26:41;20.88;80.06
69823;SHT31;57119;52.516;13.508;2023-06-10T06:29:06;21.32;80.26
69823;SHT31;57119;52.516;13.508;2023-06-10T06:31:31;21.29;79.59
69823;SHT31;57119;52.516;13.508;2023-06-10T06:33:57;21.35;79.17
69823;SHT31;57119;52.516;13.508;2023-06-10T06:36:22;21.32;78.74
69823;SHT31;57119;52.516;13.508;2023-06-10T06:38:48;21.11;78.89
69823;SHT31;57119;52.516;13.508;2023-06-10T06:41:13;21.56;78.54
69823;SHT31;57119;52.516;13.508;2023-06-10T06:43:38;21.52;79.51
69823;SHT31;57119;52.516;13.508;2023-06-10T06:46:04;21.77;78.23
69823;SHT31;57119;52.516;13.508;2023-06-10T06:48:29;21.94;78.48
69823;SHT31;57119;52.516;13.508;2023-06-10T06:50:54;22.21;76.21
69823;SHT31;57119;52.516;13.508;2023-06-10T06:53:21;22.44;77.02
69823;SHT31;57119;52.516;13.508;2023-06-10T06:55:47;22.72;76.03
69823;SHT31;57119;52.516;13.508;2023-06-10T06:58:12;22.83;74.71
69823;SHT31;57119;52.516;13.508;2023-06-10T07:00:37;22.52;75.25
69823;SHT31;57119;52.516;13.508;2023-06-10T07:03:03;22.15;75.40
69823;SHT31;57119;52.516;13.508;2023-06-10T07:05:28;22.42;76.03
69823;SHT31;57119;52.516;13.508;2023-06-10T07:07:55;22.25;76.39
69823;SHT31;57119;52.516;13.508;2023-06-10T07:10:26;22.85;75.13
69823;SHT31;57119;52.516;13.508;2023-06-10T07:12:52;22.83;74.77
69823;SHT31;57119;52.516;13.508;2023-06-10T07:15:18;22.92;73.69
69823;SHT31;57119;52.516;13.508;2023-06-10T07:17:44;23.03;74.29
69823;SHT31;57119;52.516;13.508;2023-06-10T07:20:09;23.27;74.01
69823;SHT31;57119;52.516;13.508;2023-06-10T07:22:35;22.77;74.77
69823;SHT31;57119;52.516;13.508;2023-06-10T07:25:00;23.03;74.57
69823;SHT31;57119;52.516;13.508;2023-06-10T07:27:26;23.35;74.39
69823;SHT31;57119;52.516;13.508;2023-06-10T07:29:51;23.78;73.32
69823;SHT31;57119;52.516;13.508;2023-06-10T07:32:17;23.82;73.52
69823;SHT31;57119;52.516;13.508;2023-06-10T07:34:43;23.98;73.46
69823;SHT31;57119;52.516;13.508;2023-06-10T07:37:09;23.86;73.17
69823;SHT31;57119;52.516;13.508;2023-06-10T07:39:34;23.78;73.02
69823;SHT31;57119;52.516;13.508;2023-06-10T07:42:00;24.13;73.43
69823;SHT31;57119;52.516;13.508;2023-06-10T07:44:25;23.79;73.64
69823;SHT31;57119;52.516;13.508;2023-06-10T07:46:50;23.99;72.68
69823;SHT31;57119;52.516;13.508;2023-06-10T07:49:16;24.64;72.70
69823;SHT31;57119;52.516;13.508;2023-06-10T07:51:41;24.72;70.92
69823;SHT31;57119;52.516;13.508;2023-06-10T07:54:07;24.85;70.06
69823;SHT31;57119;52.516;13.508;2023-06-10T07:56:32;25.29;69.00
69823;SHT31;57119;52.516;13.508;2023-06-10T07:58:58;25.40;67.91
69823;SHT31;57119;52.516;13.508;2023-06-10T08:01:23;26.12;67.09
69823;SHT31;57119;52.516;13.508;2023-06-10T08:03:49;26.01;66.17
69823;SHT31;57119;52.516;13.508;2023-06-10T08:06:15;26.52;67.42
69823;SHT31;57119;52.516;13.508;2023-06-10T08:08:42;26.49;67.13
69823;SHT31;57119;52.516;13.508;2023-06-10T08:11:10;26.52;66.81
69823;SHT31;57119;52.516;13.508;2023-06-10T08:13:36;26.35;66.66
69823;SHT31;57119;52.516;13.508;2023-06-10T08:16:01;26.80;64.58
69823;SHT31;57119;52.516;13.508;2023-06-10T08:18:27;28.36;64.28
69823;SHT31;57119;52.516;13.508;2023-06-10T08:20:52;28.34;60.98
69823;SHT31;57119;52.516;13.508;2023-06-10T08:23:17;29.06;60.41
69823;SHT31;57119;52.516;13.508;2023-06-10T08:25:44;28.39;61.83
69823;SHT31;57119;52.516;13.508;2023-06-10T08:28:10;27.90;60.78
69823;SHT31;57119;52.516;13.508;2023-06-10T08:30:35;28.16;61.33
69823;SHT31;57119;52.516;13.508;2023-06-10T08:33:01;28.89;61.30
69823;SHT31;57119;52.516;13.508;2023-06-10T08:35:26;28.48;61.07
69823;SHT31;57119;52.516;13.508;2023-06-10T08:37:51;29.20;60.22
69823;SHT31;57119;52.516;13.508;2023-06-10T08:40:17;28.96;60.39
69823;SHT31;57119;52.516;13.508;2023-06-10T08:42:49;28.23;60.97
69823;SHT31;57119;52.516;13.508;2023-06-10T08:45:17;27.88;62.84
69823;SHT31;57119;52.516;13.508;2023-06-10T08:47:45;27.55;63.15
69823;SHT31;57119;52.516;13.508;2023-06-10T08:50:11;27.68;64.14
69823;SHT31;57119;52.516;13.508;2023-06-10T08:52:37;27.68;64.20
69823;SHT31;57119;52.516;13.508;2023-06-10T08:55:18;28.36;62.85
69823;SHT31;57119;52.516;13.508;2023-06-10T08:57:45;28.61;62.58
69823;SHT31;57119;52.516;13.508;2023-06-10T09:00:13;28.09;62.76
69823;SHT31;57119;52.516;13.508;2023-06-10T09:02:39;28.27;63.60
69823;SHT31;57119;52.516;13.508;2023-06-10T09:05:05;28.51;62.64
69823;SHT31;57119;52.516;13.508;2023-06-10T09:07:32;28.83;62.40
69823;SHT31;57119;52.516;13.508;2023-06-10T09:10:00;28.71;62.24
69823;SHT31;57119;52.516;13.508;2023-06-10T09:12:28;30.08;60.17
69823;SHT31;57119;52.516;13.508;2023-06-10T09:14:53;30.42;59.23
69823;SHT31;57119;52.516;13.508;2023-06-10T09:17:18;30.05;59.93
69823;SHT31;57119;52.516;13.508;2023-06-10T09:19:44;30.90;59.21
69823;SHT31;57119;52.516;13.508;2023-06-10T09:22:10;30.93;58.36
69823;SHT31;57119;52.516;13.508;2023-06-10T09:24:36;31.58;57.07
69823;SHT31;57119;52.516;13.508;2023-06-10T09:27:11;31.30;56.55
69823;SHT31;57119;52.516;13.508;2023-06-10T09:29:54;30.94;57.09
69823;SHT31;57119;52.516;13.508;2023-06-10T09:32:20;30.97;57.04
69823;SHT31;57119;52.516;13.508;2023-06-10T09:34:49;30.69;57.60
69823;SHT31;57119;52.516;13.508;2023-06-10T09:37:23;30.45;57.14
69823;SHT31;57119;52.516;13.508;2023-06-10T09:40:06;30.37;58.34
69823;SHT31;57119;52.516;13.508;2023-06-10T09:42:33;29.74;59.10
69823;SHT31;57119;52.516;13.508;2023-06-10T09:44:59;29.01;59.42
69823;SHT31;57119;52.516;13.508;2023-06-10T09:47:25;28.47;61.54
69823;SHT31;57119;52.516;13.508;2023-06-10T09:49:50;28.17;62.72
69823;SHT31;57119;52.516;13.508;2023-06-10T09:52:22;27.24;62.86
69823;SHT31;57119;52.516;13.508;2023-06-10T09:54:48;26.84;63.52
69823;SHT31;57119;52.516;13.508;2023-06-10T09:57:13;26.78;62.86
69823;SHT31;57119;52.516;13.508;2023-06-10T09:59:40;26.69;62.91
69823;SHT31;57119;52.516;13.508;2023-06-10T10:02:06;26.17;63.45
69823;SHT31;57119;52.516;13.508;2023-06-10T10:04:31;26.11;63.04
69823;SHT31;57119;52.516;13.508;2023-06-10T10:06:56;26.43;63.27
69823;SHT31;57119;52.516;13.508;2023-06-10T10:09:24;26.49;62.83
69823;SHT31;57119;52.516;13.508;2023-06-10T10:11:50;26.66;62.14
69823;SHT31;57119;52.516;13.508;2023-06-10T10:14:18;26.55;62.11
69823;SHT31;57119;52.516;13.508;2023-06-10T10:16:45;26.80;62.45
69823;SHT31;57119;52.516;13.508;2023-06-10T10:19:28;26.69;61.59
69823;SHT31;57119;52.516;13.508;2023-06-10T10:21:56;26.55;61.77
69823;SHT31;57119;52.516;13.508;2023-06-10T10:24:31;26.60;61.95
69823;SHT31;57119;52.516;13.508;2023-06-10T10:26:58;26.46;62.26
69823;SHT31;57119;52.516;13.508;2023-06-10T10:29:41;26.33;61.61
69823;SHT31;57119;52.516;13.508;2023-06-10T10:32:11;26.79;61.50
69823;SHT31;57119;52.516;13.508;2023-06-10T10:34:49;27.26;60.62
69823;SHT31;57119;52.516;13.508;2023-06-10T10:37:17;27.88;59.28
69823;SHT31;57119;52.516;13.508;2023-06-10T10:39:44;27.75;58.24
69823;SHT31;57119;52.516;13.508;2023-06-10T10:42:10;27.72;58.45
69823;SHT31;57119;52.516;13.508;2023-06-10T10:44:38;28.12;56.89
69823;SHT31;57119;52.516;13.508;2023-06-10T10:49:37;28.00;56.63
69823;SHT31;57119;52.516;13.508;2023-06-10T10:52:03;28.18;57.25
69823;SHT31;57119;52.516;13.508;2023-06-10T10:54:36;28.45;56.80
69823;SHT31;57119;52.516;13.508;2023-06-10T11:00:03;29.36;54.89
69823;SHT31;57119;52.516;13.508;2023-06-10T11:05:04;30.19;54.88
69823;SHT31;57119;52.516;13.508;2023-06-10T11:07:34;30.40;53.32
69823;SHT31;57119;52.516;13.508;2023-06-10T11:10:07;30.47;53.21
69823;SHT31;57119;52.516;13.508;2023-06-10T11:15:26;32.38;50.26
69823;SHT31;57119;52.516;13.508;2023-06-10T11:18:07;33.50;49.34
69823;SHT31;57119;52.516;13.508;2023-06-10T11:28:34;35.28;43.30
69823;SHT31;57119;52.516;13.508;2023-06-10T11:30:59;35.69;43.74
69823;SHT31;57119;52.516;13.508;2023-06-10T11:33:25;36.34;44.04
69823;SHT31;57119;52.516;13.508;2023-06-10T11:35:51;36.84;43.76
69823;SHT31;57119;52.516;13.508;2023-06-10T11:38:16;35.48;43.96
69823;SHT31;57119;52.516;13.508;2023-06-10T11:40:48;36.30;45.05
69823;SHT31;57119;52.516;13.508;2023-06-10T11:43:16;36.92;44.67
69823;SHT31;57119;52.516;13.508;2023-06-10T11:45:42;36.47;44.98
69823;SHT31;57119;52.516;13.508;2023-06-10T11:48:09;35.85;47.00
69823;SHT31;57119;52.516;13.508;2023-06-10T11:50:35;35.57;47.59
69823;SHT31;57119;52.516;13.508;2023-06-10T11:53:01;36.22;47.68
69823;SHT31;57119;52.516;13.508;2023-06-10T11:55:44;35.33;46.76
69823;SHT31;57119;52.516;13.508;2023-06-10T11:58:18;34.80;46.41
69823;SHT31;57119;52.516;13.508;2023-06-10T12:00:49;34.92;45.60
69823;SHT31;57119;52.516;13.508;2023-06-10T12:03:15;35.85;45.90
69823;SHT31;57119;52.516;13.508;2023-06-10T12:06:03;36.26;45.62
69823;SHT31;57119;52.516;13.508;2023-06-10T12:08:29;36.03;45.62
69823;SHT31;57119;52.516;13.508;2023-06-10T12:10:56;36.34;45.51
69823;SHT31;57119;52.516;13.508;2023-06-10T12:13:22;37.29;43.75
69823;SHT31;57119;52.516;13.508;2023-06-10T12:15:49;38.04;43.44
69823;SHT31;57119;52.516;13.508;2023-06-10T12:18:22;37.09;44.08
69823;SHT31;57119;52.516;13.508;2023-06-10T12:20:47;35.41;45.48
69823;SHT31;57119;52.516;13.508;2023-06-10T12:23:14;37.39;43.93
69823;SHT31;57119;52.516;13.508;2023-06-10T12:25:50;35.34;46.03
69823;SHT31;57119;52.516;13.508;2023-06-10T12:28:17;37.07;45.06
69823;SHT31;57119;52.516;13.508;2023-06-10T12:30:44;36.37;45.25
69823;SHT31;57119;52.516;13.508;2023-06-10T12:33:19;37.78;44.98
69823;SHT31;57119;52.516;13.508;2023-06-10T12:38:17;37.08;45.16
69823;SHT31;57119;52.516;13.508;2023-06-10T12:40:46;37.22;45.34
69823;SHT31;57119;52.516;13.508;2023-06-10T12:43:12;37.47;45.17
69823;SHT31;57119;52.516;13.508;2023-06-10T12:45:39;38.49;44.84
69823;SHT31;57119;52.516;13.508;2023-06-10T12:48:17;38.89;43.76
69823;SHT31;57119;52.516;13.508;2023-06-10T12:50:43;39.48;44.12
69823;SHT31;57119;52.516;13.508;2023-06-10T12:53:10;38.58;44.82
69823;SHT31;57119;52.516;13.508;2023-06-10T12:55:39;39.60;44.95
69823;SHT31;57119;52.516;13.508;2023-06-10T12:58:04;39.31;44.23
69823;SHT31;57119;52.516;13.508;2023-06-10T13:00:30;39.92;44.43
69823;SHT31;57119;52.516;13.508;2023-06-10T13:02:57;38.32;43.50
69823;SHT31;57119;52.516;13.508;2023-06-10T13:05:22;39.29;43.73
69823;SHT31;57119;52.516;13.508;2023-06-10T13:07:48;39.00;42.39
69823;SHT31;57119;52.516;13.508;2023-06-10T13:10:14;39.99;43.82
69823;SHT31;57119;52.516;13.508;2023-06-10T13:12:41;40.12;43.30
69823;SHT31;57119;52.516;13.508;2023-06-10T13:15:07;39.31;43.51
69823;SHT31;57119;52.516;13.508;2023-06-10T13:17:33;37.88;44.59
69823;SHT31;57119;52.516;13.508;2023-06-10T13:20:03;37.62;46.18
69823;SHT31;57119;52.516;13.508;2023-06-10T13:22:30;36.77;46.41
69823;SHT31;57119;52.516;13.508;2023-06-10T13:25:06;35.42;47.50
69823;SHT31;57119;52.516;13.508;2023-06-10T13:27:33;35.72;48.51
69823;SHT31;57119;52.516;13.508;2023-06-10T13:29:59;33.33;49.65
69823;SHT31;57119;52.516;13.508;2023-06-10T13:32:24;34.52;48.89
69823;SHT31;57119;52.516;13.508;2023-06-10T13:34:50;35.37;47.11
69823;SHT31;57119;52.516;13.508;2023-06-10T13:37:15;35.48;47.81
69823;SHT31;57119;52.516;13.508;2023-06-10T13:39:44;34.02;49.32
69823;SHT31;57119;52.516;13.508;2023-06-10T13:42:12;33.51;50.16
69823;SHT31;57119;52.516;13.508;2023-06-10T13:44:38;32.12;52.38
69823;SHT31;57119;52.516;13.508;2023-06-10T13:47:03;31.02;54.82
69823;SHT31;57119;52.516;13.508;2023-06-10T13:49:29;30.95;55.06
69823;SHT31;57119;52.516;13.508;2023-06-10T13:51:55;30.53;56.18
69823;SHT31;57119;52.516;13.508;2023-06-10T13:54:20;31.18;54.47
69823;SHT31;57119;52.516;13.508;2023-06-10T13:56:46;32.23;52.52
69823;SHT31;57119;52.516;13.508;2023-06-10T13:59:11;34.01;49.85
69823;SHT31;57119;52.516;13.508;2023-06-10T14:01:37;35.03;46.80
69823;SHT31;57119;52.516;13.508;2023-06-10T14:04:02;35.61;44.54
69823;SHT31;57119;52.516;13.508;2023-06-10T14:06:28;36.13;44.61
69823;SHT31;57119;52.516;13.508;2023-06-10T14:08:53;36.82;44.17
69823;SHT31;57119;52.516;13.508;2023-06-10T14:11:20;36.22;43.76
69823;SHT31;57119;52.516;13.508;2023-06-10T14:13:46;36.05;44.63
69823;SHT31;57119;52.516;13.508;2023-06-10T14:16:11;37.26;43.48
69823;SHT31;57119;52.516;13.508;2023-06-10T14:18:37;37.70;43.40
69823;SHT31;57119;52.516;13.508;2023-06-10T14:21:02;36.51;43.20
69823;SHT31;57119;52.516;13.508;2023-06-10T14:23:27;37.36;43.46
69823;SHT31;57119;52.516;13.508;2023-06-10T14:25:53;38.39;43.23
69823;SHT31;57119;52.516;13.508;2023-06-10T14:28:18;37.42;41.98
69823;SHT31;57119;52.516;13.508;2023-06-10T14:30:44;38.14;41.87
69823;SHT31;57119;52.516;13.508;2023-06-10T14:33:09;37.11;41.94
69823;SHT31;57119;52.516;13.508;2023-06-10T14:35:35;37.74;41.84
69823;SHT31;57119;52.516;13.508;2023-06-10T14:38:00;37.70;41.85
69823;SHT31;57119;52.516;13.508;2023-06-10T14:40:26;37.66;40.85
69823;SHT31;57119;52.516;13.508;2023-06-10T14:42:54;36.43;41.31
69823;SHT31;57119;52.516;13.508;2023-06-10T14:45:19;36.81;41.77
69823;SHT31;57119;52.516;13.508;2023-06-10T14:47:45;37.49;41.30
69823;SHT31;57119;52.516;13.508;2023-06-10T14:50:12;36.64;41.81
69823;SHT31;57119;52.516;13.508;2023-06-10T14:52:37;36.81;42.30
69823;SHT31;57119;52.516;13.508;2023-06-10T14:55:03;38.13;41.68
69823;SHT31;57119;52.516;13.508;2023-06-10T14:57:29;37.38;41.49
69823;SHT31;57119;52.516;13.508;2023-06-10T14:59:54;37.93;41.21
69823;SHT31;57119;52.516;13.508;2023-06-10T15:02:21;37.58;41.16
69823;SHT31;57119;52.516;13.508;2023-06-10T15:04:47;36.23;42.90
69823;SHT31;57119;52.516;13.508;2023-06-10T15:07:12;37.76;42.18
69823;SHT31;57119;52.516;13.508;2023-06-10T15:09:40;36.48;42.21
69823;SHT31;57119;52.516;13.508;2023-06-10T15:12:06;36.78;41.48
69823;SHT31;57119;52.516;13.508;2023-06-10T15:14:31;35.90;41.54
69823;SHT31;57119;52.516;13.508;2023-06-10T15:16:57;36.39;41.61
69823;SHT31;57119;52.516;13.508;2023-06-10T15:19:24;36.13;41.38
69823;SHT31;57119;52.516;13.508;2023-06-10T15:21:50;36.30;41.12
69823;SHT31;57119;52.516;13.508;2023-06-10T15:24:15;35.74;40.66
69823;SHT31;57119;52.516;13.508;2023-06-10T15:26:40;34.55;40.16
69823;SHT31;57119;52.516;13.508;2023-06-10T15:29:06;35.81;40.74
69823;SHT31;57119;52.516;13.508;2023-06-10T15:31:32;36.06;39.66
69823;SHT31;57119;52.516;13.508;2023-06-10T15:33:58;36.53;39.01
69823;SHT31;57119;52.516;13.508;2023-06-10T15:36:25;33.60;41.24